createdAt,value
2022-12-28T00:04:59.046Z,1015.2
2022-12-28T00:09:59.146Z,1015
2022-12-28T00:14:59.458Z,1014.8
2022-12-28T00:19:59.054Z,1014.8
2022-12-28T00:24:58.969Z,1014.6
2022-12-28T00:29:59.165Z,1014.6
2022-12-28T00:34:58.815Z,1014.4
2022-12-28T00:39:58.939Z,1014.4
2022-12-28T00:44:58.973Z,1014.3
2022-12-28T00:49:59.002Z,1014.2
2022-12-28T00:54:58.776Z,1014.2
2022-12-28T00:59:59.069Z,1014.1
2022-12-28T01:04:58.915Z,1013.8
2022-12-28T01:09:59.515Z,1013.8
2022-12-28T01:14:58.998Z,1013.7
2022-12-28T01:19:59.351Z,1013.8
2022-12-28T01:24:59.389Z,1013.7
2022-12-28T01:29:58.886Z,1013.6
2022-12-28T01:34:59.168Z,1013.5
2022-12-28T01:39:59.014Z,1013.5
2022-12-28T01:44:58.801Z,1013.4
2022-12-28T01:49:59.019Z,1013.3
2022-12-28T01:54:58.751Z,1013.2
2022-12-28T02:00:02.134Z,1013
2022-12-28T02:04:59.645Z,1012.9
2022-12-28T02:10:43.619Z,1012.9
2022-12-28T02:14:58.745Z,1012.7
2022-12-28T02:19:58.798Z,1012.6
2022-12-28T02:25:11.471Z,1012.5
2022-12-28T02:30:02.170Z,1012.5
2022-12-28T02:36:18.680Z,1012.4
2022-12-28T02:40:02.130Z,1012.3
2022-12-28T02:44:58.874Z,1012.3
2022-12-28T02:49:58.926Z,1012.3
2022-12-28T02:54:58.870Z,1012.4
2022-12-28T02:59:58.959Z,1012.3
2022-12-28T03:05:05.231Z,1012.1
2022-12-28T03:09:58.807Z,1012.1
2022-12-28T03:14:58.750Z,1012.1
2022-12-28T03:19:59.058Z,1012.1
2022-12-28T03:24:59.081Z,1011.9
2022-12-28T03:30:01.147Z,1012.2
2022-12-28T03:34:59.027Z,1012
2022-12-28T03:39:59.083Z,1012.1
2022-12-28T03:45:01.617Z,1011.9
2022-12-28T03:49:58.881Z,1011.8
2022-12-28T03:54:58.892Z,1011.8
2022-12-28T03:59:58.923Z,1011.7
2022-12-28T04:04:59.010Z,1011.7
2022-12-28T04:09:58.764Z,1011.6
2022-12-28T04:14:59.045Z,1011.6
2022-12-28T04:19:58.712Z,1011.5
2022-12-28T04:24:59.180Z,1011.3
2022-12-28T04:29:58.780Z,1011.3
2022-12-28T04:34:58.937Z,1011.4
2022-12-28T04:39:58.907Z,1011.3
2022-12-28T04:44:59.217Z,1011.2
2022-12-28T04:49:58.852Z,1011.1
2022-12-28T04:54:58.789Z,1011
2022-12-28T04:59:59.175Z,1011.1
2022-12-28T05:04:58.729Z,1011.1
2022-12-28T05:09:58.849Z,1011
2022-12-28T05:14:58.919Z,1011.1
2022-12-28T05:19:59.419Z,1010.9
2022-12-28T05:24:59.075Z,1010.9
2022-12-28T05:29:59.036Z,1010.9
2022-12-28T05:34:58.593Z,1010.9
2022-12-28T05:39:58.815Z,1010.9
2022-12-28T05:44:58.775Z,1010.9
2022-12-28T05:49:59.374Z,1010.9
2022-12-28T05:54:58.654Z,1010.9
2022-12-28T05:59:58.786Z,1010.8
2022-12-28T06:04:58.627Z,1010.8
2022-12-28T06:09:58.654Z,1010.8
2022-12-28T06:14:58.862Z,1010.8
2022-12-28T06:19:59.365Z,1010.7
2022-12-28T06:24:58.683Z,1010.7
2022-12-28T06:29:58.631Z,1010.7
2022-12-28T06:34:58.739Z,1010.8
2022-12-28T06:39:58.627Z,1010.7
2022-12-28T06:44:58.810Z,1010.7
2022-12-28T06:49:58.725Z,1010.8
2022-12-28T06:54:58.811Z,1010.7
2022-12-28T06:59:58.787Z,1010.6
2022-12-28T07:04:58.663Z,1010.5
2022-12-28T07:09:58.633Z,1010.5
2022-12-28T07:14:58.809Z,1010.4
2022-12-28T07:19:58.820Z,1010.5
2022-12-28T07:24:58.835Z,1010.5
2022-12-28T07:29:58.630Z,1010.5
2022-12-28T07:34:58.565Z,1010.5
2022-12-28T07:39:58.657Z,1010.6
2022-12-28T07:44:58.831Z,1010.6
2022-12-28T07:49:59.117Z,1010.7
2022-12-28T07:54:58.766Z,1010.6
2022-12-28T07:59:58.648Z,1010.5
2022-12-28T08:04:58.621Z,1010.6
2022-12-28T08:09:59.132Z,1010.5
2022-12-28T08:14:58.471Z,1010.5
2022-12-28T08:19:58.554Z,1010.6
2022-12-28T08:24:58.665Z,1010.5
2022-12-28T08:29:58.462Z,1010.5
2022-12-28T08:34:58.811Z,1010.5
2022-12-28T08:39:58.789Z,1010.5
2022-12-28T08:44:58.778Z,1010.5
2022-12-28T08:49:58.605Z,1010.4
2022-12-28T08:54:58.515Z,1010.4
2022-12-28T08:59:58.591Z,1010.5
2022-12-28T09:04:58.967Z,1010.5
2022-12-28T09:09:58.770Z,1010.5
2022-12-28T09:14:58.579Z,1010.5
2022-12-28T09:19:58.741Z,1010.5
2022-12-28T09:24:58.452Z,1010.4
2022-12-28T09:29:58.682Z,1010.4
2022-12-28T09:34:58.491Z,1010.4
2022-12-28T09:40:01.585Z,1010.4
2022-12-28T09:44:58.346Z,1010.3
2022-12-28T09:50:06.062Z,1010.2
2022-12-28T09:55:03.088Z,1010.3
2022-12-28T09:59:58.673Z,1010.3
2022-12-28T10:04:58.423Z,1010.3
2022-12-28T10:09:59.075Z,1010.2
2022-12-28T10:14:58.572Z,1010.2
2022-12-28T10:19:58.384Z,1010.1
2022-12-28T10:24:58.687Z,1010.1
2022-12-28T10:29:58.695Z,1010.1
2022-12-28T10:34:58.790Z,1010.1
2022-12-28T10:39:58.491Z,1010.1
2022-12-28T10:45:01.325Z,1010.2
2022-12-28T10:50:35.962Z,1010.1
2022-12-28T10:55:07.428Z,1010
2022-12-28T11:00:13.126Z,1010
2022-12-28T11:04:59.426Z,1009.9
2022-12-28T11:10:27.193Z,1009.7
2022-12-28T11:14:58.806Z,1009.7
2022-12-28T11:19:58.433Z,1009.7
2022-12-28T11:24:59.275Z,1009.6
2022-12-28T11:29:58.829Z,1009.5
2022-12-28T11:34:58.465Z,1009.4
2022-12-28T11:39:58.582Z,1009.3
2022-12-28T11:44:58.421Z,1009.4
2022-12-28T11:49:58.559Z,1009.3
2022-12-28T11:54:58.556Z,1009.2
2022-12-28T11:59:58.363Z,1009.3
2022-12-28T12:04:58.544Z,1009.3
2022-12-28T12:09:58.449Z,1009.3
2022-12-28T12:15:02.412Z,1009
2022-12-28T12:20:00.645Z,1009.1
2022-12-28T12:24:58.502Z,1009
2022-12-28T12:29:58.583Z,1008.7
2022-12-28T12:35:01.197Z,1008.7
2022-12-28T12:39:58.559Z,1008.6
2022-12-28T12:45:01.582Z,1008.6
2022-12-28T12:50:11.882Z,1008.5
2022-12-28T12:55:05.858Z,1008.3
2022-12-28T12:59:58.228Z,1008.2
2022-12-28T13:04:58.373Z,1008.2
2022-12-28T13:09:58.390Z,1008
2022-12-28T13:14:58.310Z,1007.9
2022-12-28T13:20:06.870Z,1007.8
2022-12-28T13:24:58.331Z,1007.5
2022-12-28T13:29:58.601Z,1007.5
2022-12-28T13:34:58.355Z,1007.4
2022-12-28T13:39:58.488Z,1007.2
2022-12-28T13:45:00.313Z,1007
2022-12-28T13:50:00.578Z,1006.9
2022-12-28T13:54:58.359Z,1006.9
2022-12-28T13:59:58.865Z,1006.8
2022-12-28T14:04:58.538Z,1006.7
2022-12-28T14:09:58.602Z,1006.5
2022-12-28T14:14:58.492Z,1006.4
2022-12-28T14:19:58.565Z,1006.2
2022-12-28T14:24:58.602Z,1006.2
2022-12-28T14:29:58.369Z,1006.1
2022-12-28T14:34:59.359Z,1006
2022-12-28T14:39:58.374Z,1005.9
2022-12-28T14:44:58.162Z,1005.8
2022-12-28T14:49:59.352Z,1005.7
2022-12-28T14:54:58.312Z,1005.6
2022-12-28T14:59:58.253Z,1005.6
2022-12-28T15:05:00.817Z,1005.6
2022-12-28T15:09:58.563Z,1005.5
2022-12-28T15:14:58.432Z,1005.4
2022-12-28T15:19:58.236Z,1005.3
2022-12-28T15:24:58.111Z,1005.2
2022-12-28T15:30:06.599Z,1005.1
2022-12-28T15:34:58.685Z,1005
2022-12-28T15:39:58.414Z,1005
2022-12-28T15:44:58.353Z,1004.9
2022-12-28T15:49:58.334Z,1004.8
2022-12-28T15:54:58.279Z,1004.7
2022-12-28T15:59:58.448Z,1004.6
2022-12-28T16:04:58.295Z,1004.4
2022-12-28T16:09:58.380Z,1004.4
2022-12-28T16:14:58.304Z,1004.3
2022-12-28T16:19:58.203Z,1004.2
2022-12-28T16:24:58.090Z,1004.1
2022-12-28T16:29:58.990Z,1004
2022-12-28T16:34:58.514Z,1004
2022-12-28T16:39:58.720Z,1003.9
2022-12-28T16:44:58.339Z,1003.8
2022-12-28T16:49:58.366Z,1003.6
2022-12-28T16:54:58.161Z,1003.6
2022-12-28T16:59:58.240Z,1003.6
2022-12-28T17:04:58.155Z,1003.5
2022-12-28T17:09:58.360Z,1003.4
2022-12-28T17:15:03.209Z,1003.3
2022-12-28T17:19:58.398Z,1003.2
2022-12-28T17:24:58.253Z,1003.1
2022-12-28T17:29:58.901Z,1003
2022-12-28T17:34:58.313Z,1002.9
2022-12-28T17:39:58.242Z,1002.8
2022-12-28T17:44:58.624Z,1002.7
2022-12-28T17:49:58.386Z,1002.6
2022-12-28T17:54:58.064Z,1002.6
2022-12-28T17:59:58.134Z,1002.5
2022-12-28T18:04:58.733Z,1002.4
2022-12-28T18:09:58.784Z,1002.4
2022-12-28T18:14:58.173Z,1002.4
2022-12-28T18:19:58.111Z,1002.1
2022-12-28T18:24:57.978Z,1002.2
2022-12-28T18:29:58.119Z,1002.3
2022-12-28T18:34:58.072Z,1002.3
2022-12-28T18:39:58.399Z,1002.2
2022-12-28T18:44:58.424Z,1002.1
2022-12-28T18:49:58.119Z,1002
2022-12-28T18:54:58.184Z,1002
2022-12-28T18:59:58.124Z,1001.9
2022-12-28T19:04:58.226Z,1001.8
2022-12-28T19:09:58.028Z,1001.8
2022-12-28T19:14:58.074Z,1001.8
2022-12-28T19:19:58.112Z,1001.6
2022-12-28T19:24:58.215Z,1001.6
2022-12-28T19:29:57.981Z,1001.7
2022-12-28T19:34:58.187Z,1001.8
2022-12-28T19:39:58.411Z,1001.8
2022-12-28T19:44:58.342Z,1001.7
2022-12-28T19:49:58.180Z,1001.7
2022-12-28T19:54:58.260Z,1001.6
2022-12-28T19:59:58.168Z,1001.7
2022-12-28T20:04:58.192Z,1001.6
2022-12-28T20:09:58.408Z,1001.6
2022-12-28T20:14:58.017Z,1001.6
2022-12-28T20:19:58.404Z,1001.5
2022-12-28T20:24:58.136Z,1001.4
2022-12-28T20:29:58.094Z,1001.4
2022-12-28T20:34:57.881Z,1001.3
2022-12-28T20:39:57.989Z,1001.3
2022-12-28T20:44:58.613Z,1001.2
2022-12-28T20:49:58.114Z,1001.3
2022-12-28T20:54:58.067Z,1001.1
2022-12-28T20:59:58.109Z,1001.2
2022-12-28T21:04:58.119Z,1001.2
2022-12-28T21:09:58.004Z,1001.1
2022-12-28T21:14:58.081Z,1001.1
2022-12-28T21:19:58.100Z,1001
2022-12-28T21:24:58.265Z,1001.1
2022-12-28T21:29:58.059Z,1001
2022-12-28T21:34:58.167Z,1000.9
2022-12-28T21:39:58.363Z,1000.8
2022-12-28T21:44:58.109Z,1000.8
2022-12-28T21:49:58.092Z,1000.8
2022-12-28T21:54:57.962Z,1000.9
2022-12-28T21:59:58.003Z,1000.9
2022-12-28T22:05:02.494Z,1000.8
2022-12-28T22:09:58.146Z,1000.7
2022-12-28T22:14:58.332Z,1000.6
2022-12-28T22:19:57.877Z,1000.6
2022-12-28T22:24:58.038Z,1000.5
2022-12-28T22:29:57.963Z,1000.5
2022-12-28T22:34:58.035Z,1000.4
2022-12-28T22:39:57.981Z,1000.4
2022-12-28T22:44:57.874Z,1000.4
2022-12-28T22:49:58.139Z,1000.4
2022-12-28T22:54:57.898Z,1000.3
2022-12-28T22:59:57.956Z,1000.3
2022-12-28T23:04:57.773Z,1000.2
2022-12-28T23:09:57.953Z,1000.2
2022-12-28T23:14:57.892Z,1000.2
2022-12-28T23:19:58.005Z,1000.3
2022-12-28T23:24:57.748Z,1000.1
2022-12-28T23:29:58.338Z,1000
2022-12-28T23:34:57.849Z,1000
2022-12-28T23:39:58.319Z,999.9
2022-12-28T23:44:57.877Z,999.8
2022-12-28T23:49:57.763Z,999.8
2022-12-28T23:54:57.909Z,999.6
2022-12-28T23:59:57.873Z,999.5
